Portada
METAR-TAF:

METAR-TAF

Aeropuertos :

Aeropuerto Internacional Hato

Curazao, Antillas Neerlandesas

latitud: 12-12N, longitud: 068-58W, altitud: 9 m

Observación

El informe se hizo hace 57 minutos, a las 07:00 UTC
Viento 10 kt del este-sureste
Temperatura 27°C
Humedad 84%
Presión 1013 hPa
Visibilidad 10 km o más
Escasas nubes a una altura de 1600 ft

METAR: TNCC 310700Z 11010KT 9999 FEW016 27/24 Q1013 NOSIG

Hora: 03:57 (07:57 UTC)

Pronóstico

El informe se hizo hace 2 horas y 42 minutos, a las 05:15 UTC
Pronóstico válido del 31 a las 06 UTC al 01 a las 06 UTC
Viento 13 kt del este
Visibilidad 10 km o más
Escasas nubes a una altura de 1800 ft
Probabilidad 40% :
Temporalmente
del 31 a las 08 UTC al 31 a las 14 UTC
Cielo nuboso a una altura de 1800 ft

TAF: TNCC 310515Z 3106/0106 09013KT 9999 FEW018 PROB40 TEMPO 3108/3114 BKN018

Observaciones y pronósticos meteorológicos de más de 4000 aeropuertos (mensajes METAR y TAF).

Los puntos amarillos y rojos representan las estaciones disponibles.

Ponga el ratón en el punto deseado para ver el nombre de la estación.

Haga clic para ver las observaciones y los pronósticos meteorológicos.

Para cambiar el mapa : haga clic en los botones verdes con una cruz de color negro para hacer un zoom, en el botón verde con un guión para alejar o en las flechas verdes para mapas adyacentes.


METAR-TAF: